YCM weather

Niagara District Airport
St Catharines, Ontario, Canada

Public forecast

Using degrees Celsius for public forecast. Weather courtesy of forecast.io.

METAR (pilot weather report)

Report is more than 6 hours old.

Retrieved 2019/01/23 02:00 UTC (8 hours ago):

CYSN 230200Z 19013KT 15SM BKN078 M01/M11 A3017 RMK AC7 LAST STFD OBS/NEXT 23 1200UTC SLP223

TAF (pilot weather forecast)

Forecast is more than 12 hours old.

Retrieved 2019/01/22 20:00 UTC (14 hours ago):

TAF CYSN 221939Z 2220/2302 10008KT P6SM OVC080 BECMG 2222/2224 18012KT SCT080 BKN220 RMK NXT FCST WILL BE ISSUED AT 231345Z